sensor_id;sensor_type;location;lat;lon;timestamp;temperature;humidity
11597;DHT22;5854;48.072;16.286;2023-01-16T00:00:16;5.80;74.90
11597;DHT22;5854;48.072;16.286;2023-01-16T00:02:44;5.70;72.00
11597;DHT22;5854;48.072;16.286;2023-01-16T00:05:11;5.80;73.50
11597;DHT22;5854;48.072;16.286;2023-01-16T00:07:38;5.70;73.90
11597;DHT22;5854;48.072;16.286;2023-01-16T00:10:06;5.70;73.70
11597;DHT22;5854;48.072;16.286;2023-01-16T00:12:34;5.80;76.40
11597;DHT22;5854;48.072;16.286;2023-01-16T00:15:04;5.70;71.60
11597;DHT22;5854;48.072;16.286;2023-01-16T00:17:31;5.70;72.70
11597;DHT22;5854;48.072;16.286;2023-01-16T00:19:58;5.70;75.60
11597;DHT22;5854;48.072;16.286;2023-01-16T00:22:25;5.70;74.10
11597;DHT22;5854;48.072;16.286;2023-01-16T00:24:53;5.70;68.50
11597;DHT22;5854;48.072;16.286;2023-01-16T00:27:20;5.70;76.20
11597;DHT22;5854;48.072;16.286;2023-01-16T00:29:47;5.70;70.50
11597;DHT22;5854;48.072;16.286;2023-01-16T00:32:15;5.70;72.20
11597;DHT22;5854;48.072;16.286;2023-01-16T00:34:42;5.70;73.20
11597;DHT22;5854;48.072;16.286;2023-01-16T00:37:09;5.80;75.10
11597;DHT22;5854;48.072;16.286;2023-01-16T00:39:36;5.70;71.30
11597;DHT22;5854;48.072;16.286;2023-01-16T00:42:05;5.70;72.00
11597;DHT22;5854;48.072;16.286;2023-01-16T00:44:32;5.70;73.10
11597;DHT22;5854;48.072;16.286;2023-01-16T00:47:00;5.70;68.60
11597;DHT22;5854;48.072;16.286;2023-01-16T00:49:28;5.70;74.80
11597;DHT22;5854;48.072;16.286;2023-01-16T00:51:55;5.70;75.00
11597;DHT22;5854;48.072;16.286;2023-01-16T00:54:23;5.70;73.40
11597;DHT22;5854;48.072;16.286;2023-01-16T00:56:50;5.60;72.20
11597;DHT22;5854;48.072;16.286;2023-01-16T00:59:17;5.50;69.10
11597;DHT22;5854;48.072;16.286;2023-01-16T01:01:44;5.60;73.70
11597;DHT22;5854;48.072;16.286;2023-01-16T01:04:11;5.60;73.60
11597;DHT22;5854;48.072;16.286;2023-01-16T01:06:40;5.60;73.20
11597;DHT22;5854;48.072;16.286;2023-01-16T01:09:07;5.70;76.30
11597;DHT22;5854;48.072;16.286;2023-01-16T01:11:34;5.50;70.50
11597;DHT22;5854;48.072;16.286;2023-01-16T01:14:01;5.50;74.40
11597;DHT22;5854;48.072;16.286;2023-01-16T01:16:28;5.60;74.50
11597;DHT22;5854;48.072;16.286;2023-01-16T01:18:55;5.50;67.10
11597;DHT22;5854;48.072;16.286;2023-01-16T01:21:22;5.60;71.80
11597;DHT22;5854;48.072;16.286;2023-01-16T01:23:51;5.50;68.30
11597;DHT22;5854;48.072;16.286;2023-01-16T01:26:18;5.60;67.10
11597;DHT22;5854;48.072;16.286;2023-01-16T01:28:45;5.70;70.80
11597;DHT22;5854;48.072;16.286;2023-01-16T01:31:14;5.60;72.80
11597;DHT22;5854;48.072;16.286;2023-01-16T01:33:41;5.60;69.70
11597;DHT22;5854;48.072;16.286;2023-01-16T01:36:09;5.60;69.50
11597;DHT22;5854;48.072;16.286;2023-01-16T01:38:36;5.60;72.30
11597;DHT22;5854;48.072;16.286;2023-01-16T01:41:05;5.60;70.50
11597;DHT22;5854;48.072;16.286;2023-01-16T01:43:40;5.60;69.00
11597;DHT22;5854;48.072;16.286;2023-01-16T01:46:17;5.50;64.10
11597;DHT22;5854;48.072;16.286;2023-01-16T01:48:48;5.50;64.10
11597;DHT22;5854;48.072;16.286;2023-01-16T01:51:19;5.50;67.70
11597;DHT22;5854;48.072;16.286;2023-01-16T01:53:51;5.70;75.60
11597;DHT22;5854;48.072;16.286;2023-01-16T01:56:26;5.60;70.00
11597;DHT22;5854;48.072;16.286;2023-01-16T01:58:59;5.60;70.90
11597;DHT22;5854;48.072;16.286;2023-01-16T02:01:29;5.60;70.00
11597;DHT22;5854;48.072;16.286;2023-01-16T02:03:59;5.40;64.40
11597;DHT22;5854;48.072;16.286;2023-01-16T02:06:32;5.40;71.70
11597;DHT22;5854;48.072;16.286;2023-01-16T02:09:03;5.50;74.70
11597;DHT22;5854;48.072;16.286;2023-01-16T02:11:34;5.50;74.20
11597;DHT22;5854;48.072;16.286;2023-01-16T02:14:06;5.50;70.50
11597;DHT22;5854;48.072;16.286;2023-01-16T02:16:35;5.60;76.70
11597;DHT22;5854;48.072;16.286;2023-01-16T02:19:29;5.60;72.90
11597;DHT22;5854;48.072;16.286;2023-01-16T02:29:52;5.50;74.70
11597;DHT22;5854;48.072;16.286;2023-01-16T02:32:59;5.40;75.40
11597;DHT22;5854;48.072;16.286;2023-01-16T02:35:48;5.40;68.80
11597;DHT22;5854;48.072;16.286;2023-01-16T02:38:30;5.30;70.70
11597;DHT22;5854;48.072;16.286;2023-01-16T02:41:09;5.40;71.70
11597;DHT22;5854;48.072;16.286;2023-01-16T02:43:47;5.40;70.70
11597;DHT22;5854;48.072;16.286;2023-01-16T02:46:25;5.50;71.30
11597;DHT22;5854;48.072;16.286;2023-01-16T02:49:00;5.50;75.30
11597;DHT22;5854;48.072;16.286;2023-01-16T02:51:37;5.40;76.90
11597;DHT22;5854;48.072;16.286;2023-01-16T02:54:14;5.50;79.40
11597;DHT22;5854;48.072;16.286;2023-01-16T02:56:47;5.50;77.30
11597;DHT22;5854;48.072;16.286;2023-01-16T02:59:17;5.50;78.30
11597;DHT22;5854;48.072;16.286;2023-01-16T03:01:46;5.50;78.80
11597;DHT22;5854;48.072;16.286;2023-01-16T03:04:41;5.60;78.20
11597;DHT22;5854;48.072;16.286;2023-01-16T03:10:52;5.60;79.90
11597;DHT22;5854;48.072;16.286;2023-01-16T03:14:00;5.50;74.50
11597;DHT22;5854;48.072;16.286;2023-01-16T03:16:36;5.50;74.10
11597;DHT22;5854;48.072;16.286;2023-01-16T03:19:16;5.50;73.70
11597;DHT22;5854;48.072;16.286;2023-01-16T03:22:03;5.50;76.20
11597;DHT22;5854;48.072;16.286;2023-01-16T03:24:48;5.50;76.50
11597;DHT22;5854;48.072;16.286;2023-01-16T03:27:33;5.50;75.70
11597;DHT22;5854;48.072;16.286;2023-01-16T03:30:11;5.50;76.50
11597;DHT22;5854;48.072;16.286;2023-01-16T03:32:42;5.50;76.70
11597;DHT22;5854;48.072;16.286;2023-01-16T03:35:15;5.40;79.40
11597;DHT22;5854;48.072;16.286;2023-01-16T03:37:48;5.30;80.40
11597;DHT22;5854;48.072;16.286;2023-01-16T03:40:21;5.20;79.00
11597;DHT22;5854;48.072;16.286;2023-01-16T03:42:54;5.30;81.10
11597;DHT22;5854;48.072;16.286;2023-01-16T03:45:29;5.30;79.30
11597;DHT22;5854;48.072;16.286;2023-01-16T03:48:02;5.30;80.20
11597;DHT22;5854;48.072;16.286;2023-01-16T03:50:32;5.30;81.50
11597;DHT22;5854;48.072;16.286;2023-01-16T03:53:04;5.30;79.00
11597;DHT22;5854;48.072;16.286;2023-01-16T03:55:40;5.30;78.00
11597;DHT22;5854;48.072;16.286;2023-01-16T03:58:13;5.30;77.70
11597;DHT22;5854;48.072;16.286;2023-01-16T04:00:48;5.20;79.50
11597;DHT22;5854;48.072;16.286;2023-01-16T04:03:22;5.20;76.10
11597;DHT22;5854;48.072;16.286;2023-01-16T04:05:56;5.20;77.80
11597;DHT22;5854;48.072;16.286;2023-01-16T04:08:33;5.20;79.20
11597;DHT22;5854;48.072;16.286;2023-01-16T04:11:03;5.20;79.10
11597;DHT22;5854;48.072;16.286;2023-01-16T04:13:34;5.10;78.80
11597;DHT22;5854;48.072;16.286;2023-01-16T04:16:06;5.10;78.90
11597;DHT22;5854;48.072;16.286;2023-01-16T04:18:36;5.10;78.80
11597;DHT22;5854;48.072;16.286;2023-01-16T04:21:05;5.00;78.20
11597;DHT22;5854;48.072;16.286;2023-01-16T04:23:34;4.90;74.90
11597;DHT22;5854;48.072;16.286;2023-01-16T04:26:01;4.90;75.00
11597;DHT22;5854;48.072;16.286;2023-01-16T04:28:28;4.90;75.40
11597;DHT22;5854;48.072;16.286;2023-01-16T04:30:55;5.00;75.00
11597;DHT22;5854;48.072;16.286;2023-01-16T04:33:22;5.10;76.70
11597;DHT22;5854;48.072;16.286;2023-01-16T04:35:50;5.00;70.60
11597;DHT22;5854;48.072;16.286;2023-01-16T04:38:17;5.00;74.40
11597;DHT22;5854;48.072;16.286;2023-01-16T04:40:47;5.00;73.30
11597;DHT22;5854;48.072;16.286;2023-01-16T04:43:14;5.00;73.30
11597;DHT22;5854;48.072;16.286;2023-01-16T04:45:41;4.90;70.80
11597;DHT22;5854;48.072;16.286;2023-01-16T04:48:08;4.90;61.30
11597;DHT22;5854;48.072;16.286;2023-01-16T04:50:35;4.80;59.00
11597;DHT22;5854;48.072;16.286;2023-01-16T04:53:02;4.80;65.90
11597;DHT22;5854;48.072;16.286;2023-01-16T04:55:29;4.80;70.10
11597;DHT22;5854;48.072;16.286;2023-01-16T04:57:58;4.80;64.60
11597;DHT22;5854;48.072;16.286;2023-01-16T05:00:24;4.70;64.80
11597;DHT22;5854;48.072;16.286;2023-01-16T05:02:52;4.70;67.90
11597;DHT22;5854;48.072;16.286;2023-01-16T05:05:19;4.70;69.50
11597;DHT22;5854;48.072;16.286;2023-01-16T05:07:46;4.80;76.30
11597;DHT22;5854;48.072;16.286;2023-01-16T05:10:33;4.90;76.00
11597;DHT22;5854;48.072;16.286;2023-01-16T05:13:02;5.00;77.30
11597;DHT22;5854;48.072;16.286;2023-01-16T05:15:29;5.10;79.70
11597;DHT22;5854;48.072;16.286;2023-01-16T05:17:57;5.00;74.80
11597;DHT22;5854;48.072;16.286;2023-01-16T05:20:26;5.00;70.40
11597;DHT22;5854;48.072;16.286;2023-01-16T05:22:54;5.00;68.30
11597;DHT22;5854;48.072;16.286;2023-01-16T05:25:21;4.90;72.80
11597;DHT22;5854;48.072;16.286;2023-01-16T05:27:51;4.90;68.10
11597;DHT22;5854;48.072;16.286;2023-01-16T05:30:19;4.90;67.60
11597;DHT22;5854;48.072;16.286;2023-01-16T05:32:46;4.90;70.70
11597;DHT22;5854;48.072;16.286;2023-01-16T05:35:14;4.80;61.70
11597;DHT22;5854;48.072;16.286;2023-01-16T05:37:44;4.90;61.50
11597;DHT22;5854;48.072;16.286;2023-01-16T05:40:12;4.80;64.00
11597;DHT22;5854;48.072;16.286;2023-01-16T05:42:41;4.90;68.10
11597;DHT22;5854;48.072;16.286;2023-01-16T05:45:12;5.00;66.60
11597;DHT22;5854;48.072;16.286;2023-01-16T05:47:41;5.00;67.40
11597;DHT22;5854;48.072;16.286;2023-01-16T05:50:10;5.00;69.80
11597;DHT22;5854;48.072;16.286;2023-01-16T05:52:37;4.90;64.40
11597;DHT22;5854;48.072;16.286;2023-01-16T05:55:05;4.90;67.80
11597;DHT22;5854;48.072;16.286;2023-01-16T05:57:32;5.00;70.80
11597;DHT22;5854;48.072;16.286;2023-01-16T06:00:03;5.00;74.30
11597;DHT22;5854;48.072;16.286;2023-01-16T06:02:33;5.00;68.10
11597;DHT22;5854;48.072;16.286;2023-01-16T06:05:02;4.70;65.60
11597;DHT22;5854;48.072;16.286;2023-01-16T06:07:30;4.50;69.00
11597;DHT22;5854;48.072;16.286;2023-01-16T06:09:57;4.60;74.50
11597;DHT22;5854;48.072;16.286;2023-01-16T06:12:24;4.50;71.30
11597;DHT22;5854;48.072;16.286;2023-01-16T06:14:53;4.40;70.20
11597;DHT22;5854;48.072;16.286;2023-01-16T06:17:20;4.30;70.80
11597;DHT22;5854;48.072;16.286;2023-01-16T06:19:50;4.30;73.30
11597;DHT22;5854;48.072;16.286;2023-01-16T06:22:18;4.30;71.50
11597;DHT22;5854;48.072;16.286;2023-01-16T06:24:46;4.20;74.50
11597;DHT22;5854;48.072;16.286;2023-01-16T06:27:13;4.20;73.80
11597;DHT22;5854;48.072;16.286;2023-01-16T06:29:40;4.20;71.90
11597;DHT22;5854;48.072;16.286;2023-01-16T06:32:07;4.20;74.80
11597;DHT22;5854;48.072;16.286;2023-01-16T06:34:34;4.30;75.50
11597;DHT22;5854;48.072;16.286;2023-01-16T06:37:01;4.30;76.20
11597;DHT22;5854;48.072;16.286;2023-01-16T06:39:29;4.30;76.40
11597;DHT22;5854;48.072;16.286;2023-01-16T06:41:56;4.20;72.50
11597;DHT22;5854;48.072;16.286;2023-01-16T06:44:23;4.00;72.70
11597;DHT22;5854;48.072;16.286;2023-01-16T06:46:50;4.00;74.40
11597;DHT22;5854;48.072;16.286;2023-01-16T06:49:17;4.10;82.50
11597;DHT22;5854;48.072;16.286;2023-01-16T06:51:44;4.30;78.10
11597;DHT22;5854;48.072;16.286;2023-01-16T06:54:11;4.20;76.60
11597;DHT22;5854;48.072;16.286;2023-01-16T06:56:40;4.20;76.10
11597;DHT22;5854;48.072;16.286;2023-01-16T06:59:07;4.20;75.90
11597;DHT22;5854;48.072;16.286;2023-01-16T07:01:34;4.20;77.20
11597;DHT22;5854;48.072;16.286;2023-01-16T07:04:01;4.10;77.40
11597;DHT22;5854;48.072;16.286;2023-01-16T07:06:28;4.00;75.40
11597;DHT22;5854;48.072;16.286;2023-01-16T07:08:55;3.90;76.90
11597;DHT22;5854;48.072;16.286;2023-01-16T07:11:22;3.90;76.40
11597;DHT22;5854;48.072;16.286;2023-01-16T07:13:50;4.00;80.10
11597;DHT22;5854;48.072;16.286;2023-01-16T07:16:39;4.10;81.50
11597;DHT22;5854;48.072;16.286;2023-01-16T07:19:23;4.10;79.50
11597;DHT22;5854;48.072;16.286;2023-01-16T07:22:10;4.30;79.70
11597;DHT22;5854;48.072;16.286;2023-01-16T07:24:55;4.20;77.80
11597;DHT22;5854;48.072;16.286;2023-01-16T07:27:22;4.20;77.60
11597;DHT22;5854;48.072;16.286;2023-01-16T07:29:52;4.20;77.60
11597;DHT22;5854;48.072;16.286;2023-01-16T07:32:19;4.10;76.50
11597;DHT22;5854;48.072;16.286;2023-01-16T07:34:46;4.10;77.20
11597;DHT22;5854;48.072;16.286;2023-01-16T07:37:13;4.10;75.30
11597;DHT22;5854;48.072;16.286;2023-01-16T07:39:40;4.10;76.40
11597;DHT22;5854;48.072;16.286;2023-01-16T07:42:07;4.10;75.50
11597;DHT22;5854;48.072;16.286;2023-01-16T07:44:34;4.10;74.80
11597;DHT22;5854;48.072;16.286;2023-01-16T07:47:03;4.10;74.10
11597;DHT22;5854;48.072;16.286;2023-01-16T07:49:30;4.10;76.40
11597;DHT22;5854;48.072;16.286;2023-01-16T07:51:57;4.30;78.00
11597;DHT22;5854;48.072;16.286;2023-01-16T07:54:24;4.30;78.60
11597;DHT22;5854;48.072;16.286;2023-01-16T07:56:51;4.40;76.30
11597;DHT22;5854;48.072;16.286;2023-01-16T07:59:18;4.40;76.10
11597;DHT22;5854;48.072;16.286;2023-01-16T08:01:45;4.30;73.50
11597;DHT22;5854;48.072;16.286;2023-01-16T08:04:14;4.30;70.30
11597;DHT22;5854;48.072;16.286;2023-01-16T08:06:41;4.30;72.00
11597;DHT22;5854;48.072;16.286;2023-01-16T08:09:10;4.10;70.10
11597;DHT22;5854;48.072;16.286;2023-01-16T08:11:38;4.00;73.90
11597;DHT22;5854;48.072;16.286;2023-01-16T08:14:06;3.80;76.30
11597;DHT22;5854;48.072;16.286;2023-01-16T08:16:34;3.80;78.60
11597;DHT22;5854;48.072;16.286;2023-01-16T08:19:01;3.90;81.80
11597;DHT22;5854;48.072;16.286;2023-01-16T08:21:29;3.90;79.40
11597;DHT22;5854;48.072;16.286;2023-01-16T08:23:56;3.80;80.60
11597;DHT22;5854;48.072;16.286;2023-01-16T08:26:23;3.80;81.60
11597;DHT22;5854;48.072;16.286;2023-01-16T08:28:50;3.80;80.60
11597;DHT22;5854;48.072;16.286;2023-01-16T08:31:18;3.90;80.00
11597;DHT22;5854;48.072;16.286;2023-01-16T08:33:45;3.90;80.10
11597;DHT22;5854;48.072;16.286;2023-01-16T08:36:13;4.00;77.10
11597;DHT22;5854;48.072;16.286;2023-01-16T08:38:43;4.00;77.30
11597;DHT22;5854;48.072;16.286;2023-01-16T08:41:10;4.20;78.50
11597;DHT22;5854;48.072;16.286;2023-01-16T08:43:51;4.20;73.40
11597;DHT22;5854;48.072;16.286;2023-01-16T08:46:36;4.20;75.20
11597;DHT22;5854;48.072;16.286;2023-01-16T08:49:37;4.20;73.20
11597;DHT22;5854;48.072;16.286;2023-01-16T08:52:25;4.30;73.80
11597;DHT22;5854;48.072;16.286;2023-01-16T08:54:57;4.40;73.70
11597;DHT22;5854;48.072;16.286;2023-01-16T08:57:24;4.40;75.70
11597;DHT22;5854;48.072;16.286;2023-01-16T08:59:53;4.50;74.50
11597;DHT22;5854;48.072;16.286;2023-01-16T09:02:20;4.60;72.70
11597;DHT22;5854;48.072;16.286;2023-01-16T09:04:47;4.60;73.00
11597;DHT22;5854;48.072;16.286;2023-01-16T09:07:15;4.50;73.10
11597;DHT22;5854;48.072;16.286;2023-01-16T09:09:42;4.40;74.60
11597;DHT22;5854;48.072;16.286;2023-01-16T09:12:12;4.50;75.20
11597;DHT22;5854;48.072;16.286;2023-01-16T09:14:57;4.50;75.90
11597;DHT22;5854;48.072;16.286;2023-01-16T09:17:26;4.50;75.40
11597;DHT22;5854;48.072;16.286;2023-01-16T09:19:53;4.50;75.90
11597;DHT22;5854;48.072;16.286;2023-01-16T09:22:21;4.60;76.70
11597;DHT22;5854;48.072;16.286;2023-01-16T09:24:48;4.60;75.60
11597;DHT22;5854;48.072;16.286;2023-01-16T09:27:17;4.50;76.60
11597;DHT22;5854;48.072;16.286;2023-01-16T09:29:45;4.50;75.70
11597;DHT22;5854;48.072;16.286;2023-01-16T09:32:12;4.50;75.30
11597;DHT22;5854;48.072;16.286;2023-01-16T09:34:39;4.40;75.70
11597;DHT22;5854;48.072;16.286;2023-01-16T09:37:07;4.40;76.20
11597;DHT22;5854;48.072;16.286;2023-01-16T09:39:35;4.40;77.60
11597;DHT22;5854;48.072;16.286;2023-01-16T09:42:22;4.60;78.60
11597;DHT22;5854;48.072;16.286;2023-01-16T09:45:15;4.50;76.40
11597;DHT22;5854;48.072;16.286;2023-01-16T09:47:53;4.60;76.10
11597;DHT22;5854;48.072;16.286;2023-01-16T09:50:29;4.60;75.20
11597;DHT22;5854;48.072;16.286;2023-01-16T09:53:00;4.60;75.60
11597;DHT22;5854;48.072;16.286;2023-01-16T09:55:48;4.60;75.70
11597;DHT22;5854;48.072;16.286;2023-01-16T09:58:37;4.60;75.70
11597;DHT22;5854;48.072;16.286;2023-01-16T10:01:08;4.70;74.80
11597;DHT22;5854;48.072;16.286;2023-01-16T10:03:37;4.70;74.00
11597;DHT22;5854;48.072;16.286;2023-01-16T10:06:14;4.70;74.10
11597;DHT22;5854;48.072;16.286;2023-01-16T10:09:04;4.80;74.40
11597;DHT22;5854;48.072;16.286;2023-01-16T10:11:39;4.90;75.90
11597;DHT22;5854;48.072;16.286;2023-01-16T10:14:33;4.90;72.70
11597;DHT22;5854;48.072;16.286;2023-01-16T10:17:15;4.90;73.40
11597;DHT22;5854;48.072;16.286;2023-01-16T10:19:59;5.00;73.50
11597;DHT22;5854;48.072;16.286;2023-01-16T10:23:05;5.00;71.60
11597;DHT22;5854;48.072;16.286;2023-01-16T10:25:43;5.10;74.30
11597;DHT22;5854;48.072;16.286;2023-01-16T10:28:25;5.10;70.70
11597;DHT22;5854;48.072;16.286;2023-01-16T10:31:02;5.10;70.80
11597;DHT22;5854;48.072;16.286;2023-01-16T10:33:36;5.20;71.80
11597;DHT22;5854;48.072;16.286;2023-01-16T10:36:09;5.10;69.60
11597;DHT22;5854;48.072;16.286;2023-01-16T10:38:41;5.10;71.30
11597;DHT22;5854;48.072;16.286;2023-01-16T10:41:16;5.20;72.30
11597;DHT22;5854;48.072;16.286;2023-01-16T10:44:18;5.20;71.50
11597;DHT22;5854;48.072;16.286;2023-01-16T10:47:10;5.20;71.00
11597;DHT22;5854;48.072;16.286;2023-01-16T10:50:06;5.10;72.60
11597;DHT22;5854;48.072;16.286;2023-01-16T10:52:34;5.00;71.20
11597;DHT22;5854;48.072;16.286;2023-01-16T10:55:02;5.10;72.20
11597;DHT22;5854;48.072;16.286;2023-01-16T10:57:30;5.30;74.60
11597;DHT22;5854;48.072;16.286;2023-01-16T11:00:03;5.20;70.80
11597;DHT22;5854;48.072;16.286;2023-01-16T11:02:38;5.10;69.10
11597;DHT22;5854;48.072;16.286;2023-01-16T11:05:24;5.20;72.20
11597;DHT22;5854;48.072;16.286;2023-01-16T11:07:54;5.30;71.10
11597;DHT22;5854;48.072;16.286;2023-01-16T11:10:22;5.00;70.50
11597;DHT22;5854;48.072;16.286;2023-01-16T11:12:51;5.10;70.80
11597;DHT22;5854;48.072;16.286;2023-01-16T11:15:36;5.10;72.00
11597;DHT22;5854;48.072;16.286;2023-01-16T11:18:27;5.10;69.60
11597;DHT22;5854;48.072;16.286;2023-01-16T11:20:57;5.10;70.40
11597;DHT22;5854;48.072;16.286;2023-01-16T11:23:36;5.20;67.80
11597;DHT22;5854;48.072;16.286;2023-01-16T11:26:04;5.10;67.90
11597;DHT22;5854;48.072;16.286;2023-01-16T11:28:33;5.00;72.80
11597;DHT22;5854;48.072;16.286;2023-01-16T11:31:03;4.90;70.60
11597;DHT22;5854;48.072;16.286;2023-01-16T11:33:39;5.00;74.00
11597;DHT22;5854;48.072;16.286;2023-01-16T11:36:09;4.90;73.70
11597;DHT22;5854;48.072;16.286;2023-01-16T11:38:39;4.80;76.80
11597;DHT22;5854;48.072;16.286;2023-01-16T11:41:09;4.70;77.90
11597;DHT22;5854;48.072;16.286;2023-01-16T11:43:37;4.80;77.80
11597;DHT22;5854;48.072;16.286;2023-01-16T11:46:30;4.70;76.80
11597;DHT22;5854;48.072;16.286;2023-01-16T11:49:03;4.70;77.80
11597;DHT22;5854;48.072;16.286;2023-01-16T11:51:32;4.60;78.00
11597;DHT22;5854;48.072;16.286;2023-01-16T11:54:10;4.60;77.70
11597;DHT22;5854;48.072;16.286;2023-01-16T11:56:45;4.70;77.80
11597;DHT22;5854;48.072;16.286;2023-01-16T11:59:25;4.60;77.60
11597;DHT22;5854;48.072;16.286;2023-01-16T12:02:09;4.50;78.00
11597;DHT22;5854;48.072;16.286;2023-01-16T12:05:01;4.60;78.40
11597;DHT22;5854;48.072;16.286;2023-01-16T12:08:02;4.80;79.00
11597;DHT22;5854;48.072;16.286;2023-01-16T12:10:44;4.90;78.10
11597;DHT22;5854;48.072;16.286;2023-01-16T12:13:13;4.80;76.80
11597;DHT22;5854;48.072;16.286;2023-01-16T12:16:10;4.90;78.10
11597;DHT22;5854;48.072;16.286;2023-01-16T12:18:50;5.00;79.00
11597;DHT22;5854;48.072;16.286;2023-01-16T12:21:32;4.80;76.60
11597;DHT22;5854;48.072;16.286;2023-01-16T12:24:21;4.70;77.80
11597;DHT22;5854;48.072;16.286;2023-01-16T12:27:08;5.00;78.90
11597;DHT22;5854;48.072;16.286;2023-01-16T12:29:51;4.80;77.00
11597;DHT22;5854;48.072;16.286;2023-01-16T12:32:32;4.60;80.30
11597;DHT22;5854;48.072;16.286;2023-01-16T12:35:28;4.70;79.50
11597;DHT22;5854;48.072;16.286;2023-01-16T12:38:15;4.80;78.30
11597;DHT22;5854;48.072;16.286;2023-01-16T12:40:52;4.80;76.70
11597;DHT22;5854;48.072;16.286;2023-01-16T12:47:02;4.60;79.70
11597;DHT22;5854;48.072;16.286;2023-01-16T12:49:51;4.70;78.50
11597;DHT22;5854;48.072;16.286;2023-01-16T12:52:39;4.60;78.40
11597;DHT22;5854;48.072;16.286;2023-01-16T12:55:28;4.50;77.80
11597;DHT22;5854;48.072;16.286;2023-01-16T12:58:10;4.60;78.40
11597;DHT22;5854;48.072;16.286;2023-01-16T13:00:40;4.60;76.90
11597;DHT22;5854;48.072;16.286;2023-01-16T13:03:16;4.60;77.70
11597;DHT22;5854;48.072;16.286;2023-01-16T13:05:48;4.70;79.00
11597;DHT22;5854;48.072;16.286;2023-01-16T13:08:20;4.70;76.80
11597;DHT22;5854;48.072;16.286;2023-01-16T13:10:54;4.70;79.10
11597;DHT22;5854;48.072;16.286;2023-01-16T13:13:48;4.70;76.10
11597;DHT22;5854;48.072;16.286;2023-01-16T13:16:22;4.50;77.60
11597;DHT22;5854;48.072;16.286;2023-01-16T13:18:54;4.50;77.70
11597;DHT22;5854;48.072;16.286;2023-01-16T13:21:27;4.40;77.00
11597;DHT22;5854;48.072;16.286;2023-01-16T13:23:58;4.50;78.50
11597;DHT22;5854;48.072;16.286;2023-01-16T13:26:28;4.40;78.50
11597;DHT22;5854;48.072;16.286;2023-01-16T13:29:02;4.40;78.60
11597;DHT22;5854;48.072;16.286;2023-01-16T13:31:36;4.40;79.30
11597;DHT22;5854;48.072;16.286;2023-01-16T13:34:11;4.50;80.10
11597;DHT22;5854;48.072;16.286;2023-01-16T13:37:13;4.60;79.50
11597;DHT22;5854;48.072;16.286;2023-01-16T13:40:08;4.70;79.80
11597;DHT22;5854;48.072;16.286;2023-01-16T13:42:53;4.70;78.30
11597;DHT22;5854;48.072;16.286;2023-01-16T13:45:43;4.70;78.50
11597;DHT22;5854;48.072;16.286;2023-01-16T13:48:17;4.60;77.90
11597;DHT22;5854;48.072;16.286;2023-01-16T13:50:52;4.60;79.90
11597;DHT22;5854;48.072;16.286;2023-01-16T13:53:24;4.40;78.10
11597;DHT22;5854;48.072;16.286;2023-01-16T13:56:06;4.30;79.90
11597;DHT22;5854;48.072;16.286;2023-01-16T13:58:40;4.30;80.00
11597;DHT22;5854;48.072;16.286;2023-01-16T14:01:28;4.30;82.30
11597;DHT22;5854;48.072;16.286;2023-01-16T14:04:30;4.40;81.70
11597;DHT22;5854;48.072;16.286;2023-01-16T14:06:59;4.40;82.70
11597;DHT22;5854;48.072;16.286;2023-01-16T14:10:06;4.40;81.40
11597;DHT22;5854;48.072;16.286;2023-01-16T14:12:43;4.40;82.60
11597;DHT22;5854;48.072;16.286;2023-01-16T14:15:46;4.50;83.90
11597;DHT22;5854;48.072;16.286;2023-01-16T14:18:40;4.60;82.60
11597;DHT22;5854;48.072;16.286;2023-01-16T14:21:18;4.60;82.60
11597;DHT22;5854;48.072;16.286;2023-01-16T14:23:49;4.70;83.80
11597;DHT22;5854;48.072;16.286;2023-01-16T14:26:49;4.60;80.90
11597;DHT22;5854;48.072;16.286;2023-01-16T14:29:19;4.30;82.40
11597;DHT22;5854;48.072;16.286;2023-01-16T14:31:55;4.40;87.00
11597;DHT22;5854;48.072;16.286;2023-01-16T14:34:25;4.30;84.40
11597;DHT22;5854;48.072;16.286;2023-01-16T14:36:55;4.30;85.70
11597;DHT22;5854;48.072;16.286;2023-01-16T14:39:31;4.30;86.70
11597;DHT22;5854;48.072;16.286;2023-01-16T14:42:01;4.10;86.10
11597;DHT22;5854;48.072;16.286;2023-01-16T14:45:24;3.90;87.30
11597;DHT22;5854;48.072;16.286;2023-01-16T14:48:15;4.00;88.80
11597;DHT22;5854;48.072;16.286;2023-01-16T14:51:18;4.10;90.20
11597;DHT22;5854;48.072;16.286;2023-01-16T14:54:17;4.10;87.20
11597;DHT22;5854;48.072;16.286;2023-01-16T14:57:08;4.10;88.00
11597;DHT22;5854;48.072;16.286;2023-01-16T14:59:40;4.00;86.10
11597;DHT22;5854;48.072;16.286;2023-01-16T15:02:14;4.00;87.80
11597;DHT22;5854;48.072;16.286;2023-01-16T15:04:53;4.00;87.50
11597;DHT22;5854;48.072;16.286;2023-01-16T15:07:28;4.00;86.70
11597;DHT22;5854;48.072;16.286;2023-01-16T15:10:02;4.00;85.60
11597;DHT22;5854;48.072;16.286;2023-01-16T15:12:36;3.80;85.90
11597;DHT22;5854;48.072;16.286;2023-01-16T15:15:05;3.90;86.60
11597;DHT22;5854;48.072;16.286;2023-01-16T15:17:48;3.70;84.80
11597;DHT22;5854;48.072;16.286;2023-01-16T15:20:36;3.70;85.30
11597;DHT22;5854;48.072;16.286;2023-01-16T15:23:25;3.80;86.80
11597;DHT22;5854;48.072;16.286;2023-01-16T15:26:13;3.80;85.10
11597;DHT22;5854;48.072;16.286;2023-01-16T15:29:22;3.70;85.30
11597;DHT22;5854;48.072;16.286;2023-01-16T15:31:57;3.60;85.90
11597;DHT22;5854;48.072;16.286;2023-01-16T15:34:28;3.40;86.50
11597;DHT22;5854;48.072;16.286;2023-01-16T15:36:58;3.60;89.60
11597;DHT22;5854;48.072;16.286;2023-01-16T15:39:30;3.70;86.80
11597;DHT22;5854;48.072;16.286;2023-01-16T15:42:01;3.70;85.80
11597;DHT22;5854;48.072;16.286;2023-01-16T15:44:48;3.70;87.00
11597;DHT22;5854;48.072;16.286;2023-01-16T15:48:02;3.80;87.10
11597;DHT22;5854;48.072;16.286;2023-01-16T15:50:44;3.80;87.00
11597;DHT22;5854;48.072;16.286;2023-01-16T15:53:18;3.70;84.80
11597;DHT22;5854;48.072;16.286;2023-01-16T15:55:48;3.60;85.50
11597;DHT22;5854;48.072;16.286;2023-01-16T15:58:18;3.60;86.80
11597;DHT22;5854;48.072;16.286;2023-01-16T16:00:53;3.70;88.10
11597;DHT22;5854;48.072;16.286;2023-01-16T16:03:23;3.70;87.70
11597;DHT22;5854;48.072;16.286;2023-01-16T16:05:56;3.80;87.40
11597;DHT22;5854;48.072;16.286;2023-01-16T16:08:30;3.80;84.60
11597;DHT22;5854;48.072;16.286;2023-01-16T16:11:00;3.70;85.40
11597;DHT22;5854;48.072;16.286;2023-01-16T16:13:45;3.70;85.70
11597;DHT22;5854;48.072;16.286;2023-01-16T16:16:17;3.60;87.30
11597;DHT22;5854;48.072;16.286;2023-01-16T16:19:04;3.60;86.20
11597;DHT22;5854;48.072;16.286;2023-01-16T16:21:34;3.60;87.60
11597;DHT22;5854;48.072;16.286;2023-01-16T16:24:25;3.50;87.70
11597;DHT22;5854;48.072;16.286;2023-01-16T16:26:52;3.40;87.50
11597;DHT22;5854;48.072;16.286;2023-01-16T16:29:20;3.30;89.40
11597;DHT22;5854;48.072;16.286;2023-01-16T16:31:48;3.60;92.10
11597;DHT22;5854;48.072;16.286;2023-01-16T16:34:18;3.60;87.50
11597;DHT22;5854;48.072;16.286;2023-01-16T16:36:51;3.70;89.10
11597;DHT22;5854;48.072;16.286;2023-01-16T16:39:37;3.80;88.90
11597;DHT22;5854;48.072;16.286;2023-01-16T16:42:47;4.10;88.20
11597;DHT22;5854;48.072;16.286;2023-01-16T16:45:29;4.00;84.10